createdAt,value
2018-02-08T00:01:56.383Z,38.13
2018-02-08T00:04:24.712Z,36.43
2018-02-08T00:06:52.225Z,38.30
2018-02-08T00:09:20.565Z,35.17
2018-02-08T00:11:48.873Z,36.33
2018-02-08T00:14:17.214Z,34.37
2018-02-08T00:16:44.753Z,40.93
2018-02-08T00:19:12.311Z,36.07
2018-02-08T00:21:39.832Z,35.37
2018-02-08T00:24:07.368Z,36.27
2018-02-08T00:26:34.913Z,36.20
2018-02-08T00:29:02.453Z,36.80
2018-02-08T00:31:30.035Z,38.70
2018-02-08T00:33:57.566Z,37.63
2018-02-08T00:36:25.099Z,35.50
2018-02-08T00:38:52.637Z,38.47
2018-02-08T00:41:20.946Z,34.33
2018-02-08T00:43:48.482Z,35.97
2018-02-08T00:46:16.818Z,37.43
2018-02-08T00:48:44.384Z,38.87
2018-02-08T00:51:11.930Z,37.87
2018-02-08T00:53:39.510Z,35.17
2018-02-08T00:56:07.046Z,37.97
2018-02-08T01:01:08.591Z,40.50
2018-02-08T01:03:36.146Z,41.10
2018-02-08T01:06:03.720Z,35.43
2018-02-08T01:08:31.256Z,38.77
2018-02-08T01:10:58.808Z,31.07
2018-02-08T01:13:27.101Z,40.47
2018-02-08T01:15:54.639Z,38.40
2018-02-08T01:18:22.945Z,38.90
2018-02-08T01:20:50.497Z,38.13
2018-02-08T01:23:18.027Z,37.80
2018-02-08T01:25:46.350Z,39.30
2018-02-08T01:28:13.889Z,35.50
2018-02-08T01:30:41.503Z,35.27
2018-02-08T01:33:09.862Z,38.70
2018-02-08T01:35:37.393Z,36.73
2018-02-08T01:38:04.922Z,39.87
2018-02-08T01:40:32.470Z,41.93
2018-02-08T01:42:59.991Z,36.97
2018-02-08T01:45:27.534Z,40.03
2018-02-08T01:47:55.076Z,35.03
2018-02-08T01:50:22.643Z,39.83
2018-02-08T01:52:50.174Z,37.77
2018-02-08T01:55:17.693Z,37.77
2018-02-08T01:57:45.285Z,37.00
2018-02-08T02:02:46.959Z,39.23
2018-02-08T02:05:15.278Z,38.67
2018-02-08T02:07:42.829Z,40.73
2018-02-08T02:10:10.390Z,38.60
2018-02-08T02:12:37.974Z,38.47
2018-02-08T02:15:05.520Z,40.90
2018-02-08T02:17:33.062Z,43.90
2018-02-08T02:20:00.608Z,39.80
2018-02-08T02:22:28.924Z,40.17
2018-02-08T02:24:56.465Z,38.70
2018-02-08T02:27:24.032Z,41.13
2018-02-08T02:29:51.578Z,35.80
2018-02-08T02:32:19.919Z,40.47
2018-02-08T02:34:47.425Z,38.23
2018-02-08T02:37:15.046Z,40.43
2018-02-08T02:39:42.564Z,35.53
2018-02-08T02:42:10.112Z,40.67
2018-02-08T02:44:37.647Z,39.93
2018-02-08T02:47:05.235Z,39.53
2018-02-08T02:49:32.752Z,38.83
2018-02-08T02:52:00.280Z,36.40
2018-02-08T02:54:27.788Z,38.63
2018-02-08T02:56:56.103Z,40.67
2018-02-08T02:59:23.621Z,38.57
2018-02-08T03:01:51.928Z,37.10
2018-02-08T03:04:19.453Z,37.57
2018-02-08T03:06:47.788Z,35.33
2018-02-08T03:09:15.333Z,40.27
2018-02-08T03:11:42.844Z,41.00
2018-02-08T03:14:11.166Z,39.53
2018-02-08T03:16:38.692Z,40.13
2018-02-08T03:19:06.984Z,38.10
2018-02-08T03:21:34.524Z,41.03
2018-02-08T03:24:02.062Z,36.97
2018-02-08T03:26:30.395Z,40.20
2018-02-08T03:28:57.973Z,41.27
2018-02-08T03:31:26.113Z,39.00
2018-02-08T03:33:54.394Z,40.07
2018-02-08T03:36:21.902Z,38.90
2018-02-08T03:38:49.437Z,36.43
2018-02-08T03:41:16.975Z,38.43
2018-02-08T03:43:44.527Z,44.07
2018-02-08T03:46:12.068Z,37.77
2018-02-08T03:48:40.389Z,38.87
2018-02-08T03:51:07.918Z,41.00
2018-02-08T03:53:35.458Z,39.80
2018-02-08T03:56:03.809Z,38.57
2018-02-08T03:58:31.330Z,39.90
2018-02-08T04:00:58.862Z,41.70
2018-02-08T04:03:27.154Z,41.30
2018-02-08T04:05:54.688Z,38.73
2018-02-08T04:08:23.026Z,40.70
2018-02-08T04:10:51.304Z,39.73
2018-02-08T04:13:18.825Z,35.67
2018-02-08T04:15:46.343Z,39.00
2018-02-08T04:18:14.630Z,40.00
2018-02-08T04:20:42.932Z,35.70
2018-02-08T04:23:10.576Z,41.33
2018-02-08T04:25:38.917Z,38.90
2018-02-08T04:28:06.450Z,38.77
2018-02-08T04:30:33.991Z,42.53
2018-02-08T04:33:01.505Z,42.60
2018-02-08T04:35:29.049Z,41.47
2018-02-08T04:37:56.630Z,37.10
2018-02-08T04:40:36.017Z,40.87
2018-02-08T04:43:15.606Z,39.00
2018-02-08T04:45:54.985Z,39.47
2018-02-08T04:48:22.526Z,38.37
2018-02-08T04:50:50.059Z,39.33
2018-02-08T04:53:17.613Z,37.40
2018-02-08T04:55:45.165Z,40.20
2018-02-08T04:58:12.745Z,41.77
2018-02-08T05:00:40.334Z,41.47
2018-02-08T05:03:08.622Z,39.70
2018-02-08T05:05:36.190Z,35.87
2018-02-08T05:08:03.757Z,38.60
2018-02-08T05:10:31.284Z,37.37
2018-02-08T05:12:59.620Z,37.97
2018-02-08T05:15:27.153Z,38.07
2018-02-08T05:17:54.672Z,40.00
2018-02-08T05:20:23.012Z,36.80
2018-02-08T05:22:50.561Z,40.17
2018-02-08T05:25:18.114Z,40.60
2018-02-08T05:27:45.637Z,38.73
2018-02-08T05:30:13.952Z,40.70
2018-02-08T05:32:41.491Z,40.10
2018-02-08T05:35:09.030Z,40.37
2018-02-08T05:37:37.306Z,39.87
2018-02-08T05:40:05.598Z,39.40
2018-02-08T05:42:33.137Z,39.90
2018-02-08T05:45:03.979Z,37.53
2018-02-08T05:47:32.281Z,41.00
2018-02-08T05:49:59.815Z,37.07
2018-02-08T05:52:28.083Z,40.00
2018-02-08T05:54:55.651Z,38.07
2018-02-08T05:57:23.942Z,41.07
2018-02-08T05:59:52.226Z,39.37
2018-02-08T06:02:19.930Z,39.10
2018-02-08T06:04:47.481Z,37.60
2018-02-08T06:07:15.022Z,42.73
2018-02-08T06:09:42.601Z,41.30
2018-02-08T06:12:10.104Z,40.10
2018-02-08T06:14:38.385Z,38.30
2018-02-08T06:17:06.737Z,37.23
2018-02-08T06:19:34.252Z,39.20
2018-02-08T06:22:01.755Z,40.27
2018-02-08T06:24:30.058Z,32.50
2018-02-08T06:26:58.359Z,39.07
2018-02-08T06:29:26.094Z,37.40
2018-02-08T06:31:53.687Z,35.90
2018-02-08T06:34:21.188Z,42.80
2018-02-08T06:36:49.073Z,42.67
2018-02-08T06:39:16.536Z,34.30
2018-02-08T06:41:45.377Z,44.13
2018-02-08T06:44:12.858Z,40.23
2018-02-08T06:46:40.531Z,41.73
2018-02-08T06:49:08.007Z,41.23
2018-02-08T06:51:36.285Z,40.93
2018-02-08T06:54:03.805Z,32.63
2018-02-08T06:56:31.341Z,41.43
2018-02-08T06:58:58.848Z,42.10
2018-02-08T07:01:27.150Z,41.50
2018-02-08T07:03:54.612Z,40.27
2018-02-08T07:06:22.163Z,38.50
2018-02-08T07:08:49.701Z,41.20
2018-02-08T07:11:17.214Z,40.13
2018-02-08T07:13:44.734Z,41.27
2018-02-08T07:16:12.285Z,41.27
2018-02-08T07:18:40.600Z,38.63
2018-02-08T07:21:08.137Z,43.30
2018-02-08T07:23:36.420Z,42.77
2018-02-08T07:26:03.954Z,40.07
2018-02-08T07:28:32.261Z,41.37
2018-02-08T07:30:59.799Z,39.80
2018-02-08T07:33:28.122Z,37.57
2018-02-08T07:35:55.650Z,36.43
2018-02-08T07:38:23.201Z,40.77
2018-02-08T07:40:50.742Z,40.37
2018-02-08T07:43:19.044Z,41.13
2018-02-08T07:45:46.598Z,39.63
2018-02-08T07:48:14.189Z,41.40
2018-02-08T07:50:41.733Z,42.40
2018-02-08T07:53:09.284Z,44.47
2018-02-08T07:55:36.806Z,38.60
2018-02-08T07:58:04.365Z,42.87
2018-02-08T08:00:31.906Z,40.03
2018-02-08T08:02:59.452Z,35.33
2018-02-08T08:05:27.006Z,39.67
2018-02-08T08:07:54.592Z,41.83
2018-02-08T08:10:22.120Z,41.07
2018-02-08T08:12:49.669Z,36.87
2018-02-08T08:15:17.217Z,40.40
2018-02-08T08:17:44.779Z,39.90
2018-02-08T08:20:12.393Z,41.57
2018-02-08T08:22:39.937Z,40.00
2018-02-08T08:25:07.457Z,43.13
2018-02-08T08:27:35.025Z,39.90
2018-02-08T08:30:02.620Z,43.40
2018-02-08T08:32:30.118Z,42.27
2018-02-08T08:34:57.682Z,41.27
2018-02-08T08:37:25.975Z,42.50
2018-02-08T08:39:53.566Z,43.40
2018-02-08T08:42:21.130Z,43.77
2018-02-08T08:44:48.676Z,41.37
2018-02-08T08:47:16.235Z,42.30
2018-02-08T08:49:43.749Z,42.00
2018-02-08T08:52:11.304Z,40.97
2018-02-08T08:54:38.825Z,36.90
2018-02-08T08:57:06.473Z,36.60
2018-02-08T08:59:34.027Z,38.87
2018-02-08T09:02:01.605Z,38.07
2018-02-08T09:04:29.203Z,40.50
2018-02-08T09:06:56.736Z,38.77
2018-02-08T09:09:24.301Z,37.60
2018-02-08T09:11:51.877Z,37.97
2018-02-08T09:14:19.734Z,40.10
2018-02-08T09:16:47.266Z,33.60
2018-02-08T09:19:15.721Z,37.17
2018-02-08T09:21:43.262Z,36.50
2018-02-08T09:24:11.549Z,35.20
2018-02-08T09:26:39.070Z,34.80
2018-02-08T09:29:06.632Z,39.40
2018-02-08T09:31:34.216Z,35.90
2018-02-08T09:34:02.565Z,39.13
2018-02-08T09:36:30.094Z,40.40
2018-02-08T09:38:58.358Z,39.67
2018-02-08T09:41:25.977Z,41.13
2018-02-08T09:43:53.462Z,41.27
2018-02-08T09:46:21.744Z,44.47
2018-02-08T09:48:49.290Z,39.23
2018-02-08T09:51:17.551Z,39.37
2018-02-08T09:53:45.162Z,41.23
2018-02-08T09:56:12.760Z,43.83
2018-02-08T09:58:40.826Z,45.07
2018-02-08T10:01:08.345Z,41.47
2018-02-08T10:03:35.850Z,41.90
2018-02-08T10:06:03.364Z,42.10
2018-02-08T10:08:30.902Z,39.70
2018-02-08T10:10:58.446Z,37.60
2018-02-08T10:13:26.712Z,42.00
2018-02-08T10:15:54.218Z,38.10
2018-02-08T10:18:21.694Z,38.60
2018-02-08T10:20:49.192Z,41.57
2018-02-08T10:23:17.473Z,43.63
2018-02-08T10:25:45.015Z,41.23
2018-02-08T10:28:13.313Z,42.00
2018-02-08T10:30:41.613Z,39.23
2018-02-08T10:33:09.132Z,43.40
2018-02-08T10:35:37.466Z,43.20
2018-02-08T10:38:04.962Z,42.97
2018-02-08T10:40:34.568Z,44.13
2018-02-08T10:43:02.132Z,46.87
2018-02-08T10:45:29.675Z,38.50
2018-02-08T10:47:57.154Z,43.20
2018-02-08T10:50:24.716Z,46.27
2018-02-08T10:52:53.013Z,44.00
2018-02-08T10:55:20.544Z,43.10
2018-02-08T10:57:48.061Z,41.90
2018-02-08T11:00:15.620Z,42.17
2018-02-08T11:02:43.108Z,43.00
2018-02-08T11:05:10.598Z,41.13
2018-02-08T11:07:38.971Z,40.67
2018-02-08T11:10:07.196Z,42.93
2018-02-08T11:12:34.708Z,40.77
2018-02-08T11:15:02.980Z,43.43
2018-02-08T11:17:31.306Z,40.67
2018-02-08T11:19:58.809Z,42.10
2018-02-08T11:22:27.169Z,38.30
2018-02-08T11:24:54.773Z,40.50
2018-02-08T11:27:23.406Z,40.60
2018-02-08T11:29:54.969Z,40.80
2018-02-08T11:32:22.553Z,41.30
2018-02-08T11:34:50.868Z,39.90
2018-02-08T11:37:18.449Z,40.40
2018-02-08T11:39:45.953Z,39.97
2018-02-08T11:42:14.313Z,41.37
2018-02-08T11:44:41.849Z,44.00
2018-02-08T11:47:09.393Z,43.37
2018-02-08T11:49:36.913Z,42.80
2018-02-08T11:52:04.415Z,40.50
2018-02-08T11:54:31.965Z,38.50
2018-02-08T11:56:59.494Z,40.30
2018-02-08T11:59:27.845Z,38.33
2018-02-08T12:01:55.384Z,39.40
2018-02-08T12:06:57.660Z,36.47
2018-02-08T12:09:25.194Z,40.67
2018-02-08T12:11:52.753Z,42.77
2018-02-08T12:14:20.273Z,39.37
2018-02-08T12:16:47.776Z,41.57
2018-02-08T12:19:16.151Z,41.53
2018-02-08T12:21:43.737Z,39.60
2018-02-08T12:24:11.247Z,37.83
2018-02-08T12:26:39.467Z,41.27
2018-02-08T12:29:07.123Z,39.43
2018-02-08T12:31:34.748Z,41.87
2018-02-08T12:34:03.007Z,39.90
2018-02-08T12:36:30.469Z,42.20
2018-02-08T12:38:58.722Z,41.77
2018-02-08T12:41:26.214Z,41.40
2018-02-08T12:43:54.474Z,43.30
2018-02-08T12:46:21.937Z,43.97
2018-02-08T12:48:50.194Z,43.13
2018-02-08T12:51:17.683Z,42.10
2018-02-08T12:53:45.218Z,42.97
2018-02-08T12:56:12.709Z,42.67
2018-02-08T12:58:40.225Z,40.33
2018-02-08T13:01:07.737Z,39.67
2018-02-08T13:03:35.270Z,42.90
2018-02-08T13:06:03.575Z,44.20
2018-02-08T13:08:31.082Z,45.20
2018-02-08T13:10:58.608Z,46.00
2018-02-08T13:13:26.154Z,49.47
2018-02-08T13:15:53.686Z,43.57
2018-02-08T13:18:21.962Z,41.20
2018-02-08T13:20:50.228Z,45.70
2018-02-08T13:23:18.571Z,45.90
2018-02-08T13:25:46.133Z,42.97
2018-02-08T13:28:13.673Z,45.50
2018-02-08T13:30:41.197Z,44.50
2018-02-08T13:33:08.744Z,44.60
2018-02-08T13:35:36.310Z,42.57
2018-02-08T13:38:04.590Z,45.47
2018-02-08T13:40:33.676Z,43.90
2018-02-08T13:43:01.989Z,42.57
2018-02-08T13:45:32.418Z,44.67
2018-02-08T13:47:59.956Z,43.00
2018-02-08T14:14:49.409Z,39.30
2018-02-08T14:17:16.977Z,41.03
2018-02-08T14:19:44.800Z,43.83
2018-02-08T14:22:12.355Z,41.10
2018-02-08T14:24:39.933Z,39.57
2018-02-08T14:27:08.473Z,44.70
2018-02-08T14:29:36.068Z,42.57
2018-02-08T14:32:04.478Z,38.60
2018-02-08T14:34:32.014Z,40.03
2018-02-08T14:37:00.376Z,42.90
2018-02-08T14:39:27.913Z,41.80
2018-02-08T14:42:15.684Z,42.03
2018-02-08T14:44:55.045Z,42.03
2018-02-08T14:47:23.306Z,42.33
2018-02-08T14:49:51.655Z,42.73
2018-02-08T14:52:19.218Z,43.93
2018-02-08T14:54:47.517Z,42.10
2018-02-08T14:57:15.847Z,43.60
2018-02-08T14:59:43.380Z,42.10
2018-02-08T15:02:10.950Z,45.10
2018-02-08T15:04:38.491Z,43.40
2018-02-08T15:07:06.044Z,43.37
2018-02-08T15:09:33.631Z,44.13
2018-02-08T15:12:01.165Z,40.50
2018-02-08T15:14:28.711Z,45.30
2018-02-08T15:16:57.030Z,44.03
2018-02-08T15:19:24.631Z,44.77
2018-02-08T15:21:52.976Z,42.70
2018-02-08T15:24:20.537Z,43.70
2018-02-08T15:26:48.100Z,44.10
2018-02-08T15:29:16.422Z,45.50
2018-02-08T15:31:44.013Z,41.57
2018-02-08T15:34:11.551Z,41.70
2018-02-08T15:36:39.109Z,40.40
2018-02-08T15:39:06.645Z,42.53
2018-02-08T15:41:34.209Z,39.80
2018-02-08T15:44:02.515Z,45.33
2018-02-08T15:46:30.077Z,40.80
2018-02-08T15:48:57.582Z,42.50
2018-02-08T15:51:25.128Z,45.70
2018-02-08T15:53:52.631Z,46.50
2018-02-08T15:56:20.981Z,45.43
2018-02-08T15:58:48.517Z,43.57
2018-02-08T16:01:26.778Z,42.23
2018-02-08T16:03:54.325Z,43.17
2018-02-08T16:06:22.641Z,45.37
2018-02-08T16:08:50.161Z,44.17
2018-02-08T16:11:17.690Z,42.27
2018-02-08T16:13:45.230Z,40.60
2018-02-08T16:16:12.757Z,42.50
2018-02-08T16:18:41.052Z,45.90
2018-02-08T16:21:08.571Z,43.90
2018-02-08T16:23:36.108Z,44.20
2018-02-08T16:26:03.625Z,42.70
2018-02-08T16:28:31.168Z,43.03
2018-02-08T16:30:59.480Z,44.13
2018-02-08T16:33:27.002Z,44.40
2018-02-08T16:35:55.397Z,42.60
2018-02-08T16:38:22.976Z,43.77
2018-02-08T16:40:50.544Z,46.90
2018-02-08T16:43:18.075Z,44.20
2018-02-08T16:45:45.599Z,41.40
2018-02-08T16:48:13.135Z,42.90
2018-02-08T16:50:40.666Z,45.53
2018-02-08T16:53:08.182Z,41.70
2018-02-08T16:55:35.683Z,43.70
2018-02-08T16:58:03.212Z,41.43
2018-02-08T17:03:06.137Z,42.67
2018-02-08T17:05:33.766Z,43.27
2018-02-08T17:08:02.066Z,43.00
2018-02-08T17:10:29.611Z,40.07
2018-02-08T17:13:15.041Z,42.13
2018-02-08T17:15:54.983Z,42.67
2018-02-08T17:18:24.131Z,41.93
2018-02-08T17:20:51.684Z,40.23
2018-02-08T17:23:22.280Z,39.50
2018-02-08T17:26:00.874Z,42.80
2018-02-08T17:31:05.777Z,39.87
2018-02-08T17:33:36.291Z,42.90
2018-02-08T17:36:07.432Z,42.77
2018-02-08T17:38:36.790Z,40.50
2018-02-08T17:41:05.474Z,43.53
2018-02-08T17:43:33.164Z,40.13
2018-02-08T17:46:03.130Z,42.60
2018-02-08T17:48:31.505Z,41.97
2018-02-08T17:50:59.834Z,40.87
2018-02-08T17:53:27.478Z,41.67
2018-02-08T17:55:57.765Z,42.80
2018-02-08T18:01:31.133Z,40.40
2018-02-08T18:06:37.702Z,39.70
2018-02-08T18:09:05.232Z,43.13
2018-02-08T18:11:47.051Z,44.33
2018-02-08T18:14:14.613Z,40.00
2018-02-08T18:16:42.185Z,45.67
2018-02-08T18:19:09.945Z,43.87
2018-02-08T18:21:37.618Z,43.93
2018-02-08T18:24:05.301Z,43.77
2018-02-08T18:26:32.972Z,39.30
2018-02-08T18:29:00.563Z,42.20
2018-02-08T18:31:28.213Z,40.07
2018-02-08T18:33:56.613Z,44.80
2018-02-08T18:36:24.216Z,39.50
2018-02-08T18:38:51.820Z,42.70
2018-02-08T18:41:20.254Z,41.80
2018-02-08T18:43:48.708Z,40.83
2018-02-08T18:46:23.829Z,43.27
2018-02-08T18:48:52.170Z,44.80
2018-02-08T18:51:19.767Z,44.33
2018-02-08T18:53:47.315Z,44.40
2018-02-08T18:56:15.609Z,44.13
2018-02-08T18:58:43.175Z,39.10
2018-02-08T19:03:44.562Z,41.80
2018-02-08T19:06:12.101Z,46.00
2018-02-08T19:08:39.622Z,44.50
2018-02-08T19:11:07.140Z,41.03
2018-02-08T19:13:34.694Z,40.43
2018-02-08T19:16:02.250Z,43.63
2018-02-08T19:18:29.773Z,41.40
2018-02-08T19:20:58.079Z,43.40
2018-02-08T19:23:25.605Z,42.00
2018-02-08T19:25:53.924Z,44.73
2018-02-08T19:28:21.479Z,43.07
2018-02-08T19:30:49.021Z,46.43
2018-02-08T19:33:16.546Z,43.70
2018-02-08T19:35:44.113Z,42.47
2018-02-08T19:38:12.425Z,46.27
2018-02-08T19:40:39.998Z,45.57
2018-02-08T19:43:07.555Z,43.30
2018-02-08T19:45:35.157Z,43.20
2018-02-08T19:48:02.689Z,41.40
2018-02-08T19:50:30.226Z,43.57
2018-02-08T19:52:57.806Z,42.87
2018-02-08T19:55:25.361Z,44.33
2018-02-08T19:57:52.905Z,46.33
2018-02-08T20:00:20.453Z,41.97
2018-02-08T20:02:48.015Z,45.17
2018-02-08T20:05:15.570Z,44.53
2018-02-08T20:07:43.870Z,46.37
2018-02-08T20:10:11.671Z,44.77
2018-02-08T20:12:39.233Z,43.13
2018-02-08T20:15:06.808Z,46.07
2018-02-08T20:17:34.337Z,43.20
2018-02-08T20:20:01.899Z,42.40
2018-02-08T20:22:29.461Z,43.43
2018-02-08T20:24:57.025Z,43.40
2018-02-08T20:27:24.554Z,43.77
2018-02-08T20:29:52.103Z,41.73
2018-02-08T20:32:19.630Z,43.53
2018-02-08T20:34:47.921Z,44.07
2018-02-08T20:37:16.256Z,44.10
2018-02-08T20:39:43.790Z,41.03
2018-02-08T20:42:17.070Z,45.20
2018-02-08T20:44:44.615Z,41.53
2018-02-08T20:49:52.045Z,44.87
2018-02-08T20:52:19.576Z,44.93
2018-02-08T20:54:47.877Z,43.63
2018-02-08T20:57:15.441Z,51.00
2018-02-08T20:59:43.019Z,49.30
2018-02-08T21:02:10.617Z,44.30
2018-02-08T21:04:38.978Z,44.60
2018-02-08T21:07:07.492Z,49.87
2018-02-08T21:09:35.913Z,48.27
2018-02-08T21:12:03.458Z,47.40
2018-02-08T21:14:31.033Z,45.47
2018-02-08T21:17:09.423Z,45.80
2018-02-08T21:19:37.842Z,45.63
2018-02-08T21:22:05.430Z,44.40
2018-02-08T21:24:33.744Z,43.77
2018-02-08T21:27:01.264Z,45.37
2018-02-08T21:29:29.003Z,42.27
2018-02-08T21:31:56.548Z,45.90
2018-02-08T21:34:24.109Z,47.80
2018-02-08T21:36:51.643Z,44.43
2018-02-08T21:39:19.227Z,47.07
2018-02-08T21:41:46.785Z,45.57
2018-02-08T21:44:14.352Z,44.30
2018-02-08T21:46:41.907Z,45.70
2018-02-08T21:49:09.412Z,43.10
2018-02-08T21:51:37.758Z,41.80
2018-02-08T21:54:06.061Z,44.93
2018-02-08T21:56:33.646Z,43.20
2018-02-08T21:59:01.176Z,45.73
2018-02-08T22:01:28.714Z,47.43
2018-02-08T22:03:56.258Z,47.70
2018-02-08T22:06:23.829Z,44.93
2018-02-08T22:08:51.373Z,48.33
2018-02-08T22:11:18.929Z,46.90
2018-02-08T22:13:46.445Z,48.07
2018-02-08T22:16:14.757Z,47.07
2018-02-08T22:18:42.280Z,45.13
2018-02-08T22:21:10.591Z,49.20
2018-02-08T22:23:38.114Z,45.00
2018-02-08T22:26:05.652Z,48.00
2018-02-08T22:28:35.965Z,46.80
2018-02-08T22:31:03.512Z,47.47
2018-02-08T22:33:31.033Z,44.37
2018-02-08T22:36:36.178Z,50.73
2018-02-08T22:39:07.564Z,41.47
2018-02-08T22:41:35.152Z,46.67
2018-02-08T22:44:02.932Z,45.23
2018-02-08T22:46:31.221Z,45.20
2018-02-08T22:48:59.540Z,42.17
